Time;durP1;ratioP1;P1;durP2;ratioP2;P2;SDS_P1;SDS_P2;PMS_P1;PMS_P2;Temp;Humidity;BMP_temperature;BMP_pressure;BME280_temperature;BME280_humidity;BME280_pressure;Samples;Min_cycle;Max_cycle;Signal;HPM_P1;HPM_P2
2021/09/27 00:00:33;;;;;;;18.40;16.53;;;;;;;15.54;100.00;98278.72;4969000;28;20564;-68
2021/09/27 00:03:01;;;;;;;18.37;16.53;;;;;;;15.51;100.00;98279.06;4936320;28;20927;-69
2021/09/27 00:05:31;;;;;;;21.20;17.93;;;;;;;15.47;100.00;98275.97;4974231;28;20206;-68
2021/09/27 00:07:59;;;;;;;25.13;22.43;;;;;;;15.42;100.00;98273.06;4956751;28;20210;-69
2021/09/27 00:10:30;;;;;;;20.27;17.67;;;;;;;15.40;100.00;98270.56;4974163;28;20681;-70
2021/09/27 00:12:58;;;;;;;17.97;16.17;;;;;;;15.40;100.00;98275.09;4968655;28;20222;-70
2021/09/27 00:15:29;;;;;;;18.67;16.63;;;;;;;15.36;100.00;98273.81;4967453;28;20209;-70
2021/09/27 00:17:58;;;;;;;19.20;17.17;;;;;;;15.37;100.00;98260.25;4919400;28;20283;-70
2021/09/27 00:20:26;;;;;;;20.00;17.90;;;;;;;15.32;100.00;98262.66;4972087;28;20335;-69
2021/09/27 00:22:55;;;;;;;20.00;17.37;;;;;;;15.31;100.00;98259.16;4950871;28;20245;-69
2021/09/27 00:25:25;;;;;;;17.43;14.93;;;;;;;15.29;100.00;98255.03;4972661;28;20205;-69
2021/09/27 00:27:54;;;;;;;19.47;15.93;;;;;;;15.27;100.00;98255.19;4960733;28;20440;-69
2021/09/27 00:30:22;;;;;;;17.97;15.50;;;;;;;15.25;100.00;98251.91;4967259;28;20690;-68
2021/09/27 00:32:51;;;;;;;20.70;15.80;;;;;;;15.31;100.00;98256.47;4914516;28;21094;-70
2021/09/27 00:35:22;;;;;;;18.67;15.73;;;;;;;15.31;100.00;98250.31;4969550;28;20221;-68
2021/09/27 00:37:50;;;;;;;15.77;14.20;;;;;;;15.30;100.00;98248.69;4947413;28;20368;-68
2021/09/27 00:40:23;;;;;;;17.27;15.37;;;;;;;15.26;100.00;98258.06;4969586;28;20737;-69
2021/09/27 00:42:52;;;;;;;18.93;16.57;;;;;;;15.27;100.00;98259.72;4964520;28;20226;-69
2021/09/27 00:45:21;;;;;;;18.00;15.77;;;;;;;15.24;100.00;98252.91;4969839;28;20217;-69
2021/09/27 00:47:49;;;;;;;16.80;15.00;;;;;;;15.25;100.00;98259.91;4925418;28;20544;-69
2021/09/27 00:50:21;;;;;;;18.57;14.87;;;;;;;15.25;100.00;98257.22;4956261;28;20670;-69
2021/09/27 00:52:49;;;;;;;16.30;14.53;;;;;;;15.24;100.00;98252.91;4949021;28;20226;-69
2021/09/27 00:55:21;;;;;;;17.47;15.67;;;;;;;15.28;100.00;98248.84;4966579;28;20291;-70
2021/09/27 00:57:50;;;;;;;16.83;14.47;;;;;;;15.24;100.00;98236.91;4965119;28;20361;-70
2021/09/27 01:00:21;;;;;;;15.37;13.80;;;;;;;15.23;100.00;98245.91;4973507;28;20265;-70
2021/09/27 01:02:49;;;;;;;17.63;14.47;;;;;;;15.18;100.00;98241.16;4929417;28;20249;-68
2021/09/27 01:05:19;;;;;;;17.13;14.30;;;;;;;15.13;100.00;98242.72;4973809;28;20214;-70
2021/09/27 01:07:52;;;;;;;16.13;13.53;;;;;;;15.10;100.00;98235.09;4931247;28;20690;-68
2021/09/27 01:10:32;;;;;;;16.43;14.70;;;;;;;15.09;100.00;98241.44;4958403;28;20202;-70
2021/09/27 01:13:12;;;;;;;15.53;13.93;;;;;;;15.10;100.00;98238.59;4959815;28;20226;-68
2021/09/27 01:15:45;;;;;;;15.60;13.30;;;;;;;15.09;100.00;98242.25;4961423;28;20218;-69
2021/09/27 01:18:21;;;;;;;16.53;14.07;;;;;;;15.09;100.00;98244.13;4961847;28;20507;-70
2021/09/27 01:21:07;;;;;;;15.40;13.80;;;;;;;15.08;100.00;98253.16;4950684;28;20426;-68
2021/09/27 01:24:09;;;;;;;15.73;14.07;;;;;;;15.03;100.00;98253.69;4934169;28;20222;-69
2021/09/27 01:27:10;;;;;;;18.40;14.73;;;;;;;15.01;100.00;98253.91;4963653;28;20205;-68
2021/09/27 01:30:25;;;;;;;20.80;16.10;;;;;;;14.98;100.00;98245.41;4965619;28;20582;-68
2021/09/27 01:32:56;;;;;;;16.43;13.93;;;;;;;14.99;100.00;98255.06;4954663;28;20225;-68
2021/09/27 01:35:39;;;;;;;16.97;14.70;;;;;;;14.96;100.00;98252.78;4949396;28;20223;-70
2021/09/27 01:38:16;;;;;;;17.00;14.30;;;;;;;14.96;100.00;98240.25;4933324;28;20216;-68
2021/09/27 01:40:51;;;;;;;16.20;14.60;;;;;;;14.93;100.00;98232.63;4960729;28;20232;-68
2021/09/27 01:43:22;;;;;;;16.80;14.77;;;;;;;14.94;100.00;98233.47;4963155;28;20517;-69
2021/09/27 01:45:54;;;;;;;16.90;14.10;;;;;;;15.02;100.00;98234.19;4958906;28;20444;-69
2021/09/27 01:48:26;;;;;;;15.93;14.33;;;;;;;14.96;100.00;98239.44;4973048;28;20241;-69
2021/09/27 01:50:59;;;;;;;17.87;14.67;;;;;;;14.94;100.00;98242.28;4952438;28;20261;-69
2021/09/27 01:53:34;;;;;;;16.27;14.73;;;;;;;14.95;100.00;98249.28;4966188;28;20678;-69
2021/09/27 01:56:05;;;;;;;16.77;14.33;;;;;;;14.94;100.00;98247.63;4948569;28;20297;-71
2021/09/27 01:58:42;;;;;;;15.93;14.13;;;;;;;14.95;100.00;98245.78;4967841;28;20213;-68
2021/09/27 02:01:15;;;;;;;15.90;12.53;;;;;;;14.96;100.00;98237.59;4967421;28;20523;-68
2021/09/27 02:03:47;;;;;;;13.67;12.47;;;;;;;14.96;100.00;98240.25;4959611;28;20210;-68
2021/09/27 02:06:22;;;;;;;15.27;13.23;;;;;;;14.95;100.00;98235.94;4954779;28;20693;-70
2021/09/27 02:08:59;;;;;;;17.53;15.63;;;;;;;14.94;100.00;98244.13;4960957;28;20369;-70
2021/09/27 02:11:29;;;;;;;16.40;14.80;;;;;;;14.93;100.00;98250.50;4930362;28;20222;-68
2021/09/27 02:14:12;;;;;;;15.27;13.70;;;;;;;14.91;100.00;98234.66;4962280;28;20194;-70
2021/09/27 02:16:47;;;;;;;15.97;14.30;;;;;;;14.99;100.00;98231.91;4961882;28;20501;-68
2021/09/27 02:19:24;;;;;;;16.73;14.43;;;;;;;14.97;100.00;98220.59;4961424;28;20756;-70
2021/09/27 02:21:55;;;;;;;15.20;13.63;;;;;;;14.97;100.00;98219.75;4954670;28;20862;-70
2021/09/27 02:24:30;;;;;;;16.17;14.00;;;;;;;14.95;100.00;98232.44;4966030;28;20210;-70
2021/09/27 02:26:58;;;;;;;16.00;14.40;;;;;;;15.00;100.00;98238.91;4928005;28;20336;-70
2021/09/27 02:29:26;;;;;;;17.93;15.30;;;;;;;14.94;100.00;98233.47;4967493;28;20221;-70
2021/09/27 02:32:04;;;;;;;16.67;14.23;;;;;;;14.89;100.00;98237.53;4966906;28;20265;-70
2021/09/27 02:34:37;;;;;;;16.93;15.13;;;;;;;14.90;100.00;98239.19;4961564;28;20597;-68
2021/09/27 02:37:11;;;;;;;16.23;14.63;;;;;;;14.92;100.00;98244.31;4968272;28;20214;-69
2021/09/27 02:39:44;;;;;;;16.50;14.80;;;;;;;14.95;100.00;98243.13;4947533;28;20216;-68
2021/09/27 02:42:19;;;;;;;15.40;13.83;;;;;;;14.92;100.00;98241.66;4923700;28;20234;-68
2021/09/27 02:44:47;;;;;;;15.73;14.10;;;;;;;14.89;100.00;98237.53;4960906;28;20327;-69
2021/09/27 02:47:19;;;;;;;17.17;15.17;;;;;;;14.87;100.00;98236.03;4962091;28;20679;-69
2021/09/27 02:49:48;;;;;;;17.30;14.23;;;;;;;14.94;100.00;98233.47;4953009;28;20705;-69
2021/09/27 02:52:18;;;;;;;15.80;14.10;;;;;;;14.89;100.00;98232.19;4954650;28;20225;-69
2021/09/27 02:54:49;;;;;;;16.80;14.43;;;;;;;14.85;100.00;98233.56;4939584;28;20198;-67
2021/09/27 02:57:35;;;;;;;16.03;13.47;;;;;;;14.85;100.00;98230.91;4951330;28;20272;-69
2021/09/27 03:00:08;;;;;;;14.23;12.83;;;;;;;14.87;100.00;98226.22;4944219;28;20457;-70
2021/09/27 03:02:42;;;;;;;16.30;13.63;;;;;;;14.85;100.00;98230.91;4963267;28;20650;-69
2021/09/27 03:05:20;;;;;;;16.77;15.07;;;;;;;14.88;100.00;98230.53;4960341;28;20313;-69
2021/09/27 03:08:00;;;;;;;15.47;13.37;;;;;;;14.85;100.00;98230.91;4963887;28;20314;-71
2021/09/27 03:10:34;;;;;;;16.93;15.17;;;;;;;14.83;100.00;98224.94;4951495;28;20209;-68
2021/09/27 03:13:07;;;;;;;14.87;13.43;;;;;;;14.85;100.00;98219.41;4926767;28;20592;-70
2021/09/27 03:15:51;;;;;;;15.63;12.83;;;;;;;14.88;100.00;98224.34;4930510;28;20225;-70
2021/09/27 03:18:28;;;;;;;16.07;14.37;;;;;;;14.88;100.00;98219.88;4948067;28;20631;-69
2021/09/27 03:21:05;;;;;;;15.07;13.53;;;;;;;14.90;100.00;98222.31;4965981;28;20361;-69
2021/09/27 03:23:39;;;;;;;17.23;15.23;;;;;;;14.83;100.00;98232.09;4957014;28;20205;-68
2021/09/27 03:26:16;;;;;;;19.03;15.70;;;;;;;14.83;100.00;98222.25;4964425;28;20569;-68
2021/09/27 03:28:50;;;;;;;17.17;14.03;;;;;;;14.83;100.00;98216.94;4970678;28;20201;-69
2021/09/27 03:31:23;;;;;;;16.87;15.30;;;;;;;14.89;100.00;98220.66;4940759;28;20234;-70
2021/09/27 03:34:02;;;;;;;16.17;14.47;;;;;;;14.86;100.00;98224.56;4968827;28;20213;-68
2021/09/27 03:37:10;;;;;;;14.67;13.27;;;;;;;14.85;100.00;98224.72;4965927;28;20206;-69
2021/09/27 03:39:40;;;;;;;14.47;12.97;;;;;;;14.82;100.00;98230.44;4917478;28;20732;-69
2021/09/27 03:42:12;;;;;;;15.10;12.90;;;;;;;14.83;100.00;98229.44;4969645;28;20237;-69
2021/09/27 03:44:45;;;;;;;15.60;14.00;;;;;;;14.83;100.00;98224.09;4934425;28;20712;-69
2021/09/27 03:47:19;;;;;;;16.30;13.77;;;;;;;14.82;100.00;98217.94;4943840;28;20211;-70
2021/09/27 03:49:49;;;;;;;15.57;13.43;;;;;;;14.81;100.00;98221.63;4968016;28;20709;-68
2021/09/27 03:52:22;;;;;;;15.97;14.43;;;;;;;14.81;100.00;98212.78;4966657;28;20253;-69
2021/09/27 03:54:56;;;;;;;17.03;14.77;;;;;;;14.76;100.00;98226.66;4951430;28;20482;-69
2021/09/27 03:57:28;;;;;;;16.80;15.07;;;;;;;14.76;100.00;98224.00;4968819;28;20826;-71
2021/09/27 03:59:59;;;;;;;15.77;13.97;;;;;;;14.78;100.00;98224.66;4931454;28;21755;-70
2021/09/27 04:02:36;;;;;;;15.70;14.20;;;;;;;14.76;100.00;98216.84;4942965;28;20234;-70
2021/09/27 04:05:08;;;;;;;15.63;13.93;;;;;;;14.76;100.00;98222.16;4965273;28;20202;-68
2021/09/27 04:07:52;;;;;;;16.20;14.67;;;;;;;14.83;100.00;98218.75;4966701;28;20701;-68
2021/09/27 04:10:23;;;;;;;14.33;13.00;;;;;;;14.76;100.00;98222.16;4961047;28;20281;-69
2021/09/27 04:13:03;;;;;;;16.77;14.17;;;;;;;14.76;100.00;98221.31;4950505;28;20841;-71
2021/09/27 04:15:54;;;;;;;16.60;14.90;;;;;;;14.79;100.00;98222.81;4930147;28;20221;-70
2021/09/27 04:18:28;;;;;;;15.60;14.10;;;;;;;14.87;100.00;98222.69;4952749;28;20222;-69
2021/09/27 04:21:04;;;;;;;16.53;14.83;;;;;;;14.87;100.00;98220.88;4963894;28;20201;-67
2021/09/27 04:23:43;;;;;;;15.43;13.90;;;;;;;14.83;100.00;98221.41;4961464;28;20246;-66
2021/09/27 04:26:23;;;;;;;16.83;15.23;;;;;;;14.82;100.00;98225.94;4966884;28;20205;-66
2021/09/27 04:29:11;;;;;;;15.93;14.43;;;;;;;14.82;100.00;98217.09;4944216;28;20399;-67
2021/09/27 04:31:46;;;;;;;17.57;15.77;;;;;;;14.80;100.00;98227.97;4930156;28;20284;-66
2021/09/27 04:34:36;;;;;;;19.13;16.60;;;;;;;14.78;100.00;98219.34;4959921;28;20221;-67
2021/09/27 04:37:05;;;;;;;18.63;16.70;;;;;;;14.83;100.00;98222.25;4968981;28;20416;-68
2021/09/27 04:39:37;;;;;;;18.13;16.23;;;;;;;14.83;100.00;98211.59;4963648;28;20597;-67
2021/09/27 04:42:30;;;;;;;18.00;16.10;;;;;;;14.87;100.00;98217.38;4954620;28;20348;-67
2021/09/27 04:45:09;;;;;;;23.00;16.13;;;;;;;14.81;100.00;98213.63;4929500;28;20720;-69
2021/09/27 04:47:46;;;;;;;18.63;16.63;;;;;;;14.72;100.00;98204.88;4927413;28;20209;-68
2021/09/27 04:50:23;;;;;;;20.67;17.13;;;;;;;14.67;100.00;98212.59;4959386;28;20681;-68
2021/09/27 04:52:56;;;;;;;17.47;15.53;;;;;;;14.61;100.00;98205.31;4960704;28;20520;-68
2021/09/27 04:55:50;;;;;;;17.77;15.80;;;;;;;14.56;100.00;98210.38;4963777;28;20599;-68
2021/09/27 04:58:36;;;;;;;18.90;16.93;;;;;;;14.51;100.00;98210.94;4948501;28;20245;-67
2021/09/27 05:01:13;;;;;;;25.17;17.63;;;;;;;14.48;100.00;98217.44;4966844;28;20607;-66
2021/09/27 05:03:59;;;;;;;19.97;17.13;;;;;;;14.51;100.00;98220.75;4931280;28;20225;-67
2021/09/27 05:06:42;;;;;;;21.20;17.67;;;;;;;14.44;100.00;98213.50;4967259;28;20305;-69
2021/09/27 05:09:20;;;;;;;19.80;16.87;;;;;;;14.43;100.00;98219.03;4961412;28;20209;-69
2021/09/27 05:12:19;;;;;;;18.67;16.70;;;;;;;14.39;100.00;98215.06;4961161;28;20711;-67
2021/09/27 05:14:56;;;;;;;19.87;17.20;;;;;;;14.39;100.00;98220.38;4946048;28;20209;-67
2021/09/27 05:17:49;;;;;;;19.83;17.23;;;;;;;14.38;100.00;98216.91;4965949;28;20209;-68
2021/09/27 05:20:43;;;;;;;22.10;16.17;;;;;;;14.36;100.00;98223.41;4932861;28;20221;-68
2021/09/27 05:23:14;;;;;;;24.33;17.17;;;;;;;14.36;100.00;98224.25;4967961;28;20404;-69
2021/09/27 05:26:05;;;;;;;22.40;18.53;;;;;;;14.43;100.00;98219.84;4922519;28;20540;-67
2021/09/27 05:28:52;;;;;;;19.00;16.40;;;;;;;14.36;100.00;98226.06;4967085;28;20233;-68
2021/09/27 05:31:51;;;;;;;21.07;17.60;;;;;;;14.35;100.00;98227.09;4969327;28;20206;-68
2021/09/27 05:34:28;;;;;;;24.10;16.73;;;;;;;14.38;100.00;98224.91;4931586;28;20693;-67
2021/09/27 05:37:05;;;;;;;19.40;16.87;;;;;;;14.39;100.00;98223.03;4961589;28;20221;-68
2021/09/27 05:39:44;;;;;;;22.17;17.83;;;;;;;14.38;100.00;98224.06;4919071;28;20597;-67
2021/09/27 05:42:19;;;;;;;22.67;17.03;;;;;;;14.37;100.00;98228.56;4955323;28;20363;-69
2021/09/27 05:44:58;;;;;;;20.87;18.17;;;;;;;14.42;100.00;98228.84;4964297;28;20744;-67
2021/09/27 05:47:33;;;;;;;25.07;17.37;;;;;;;14.41;100.00;98235.19;4970678;28;20221;-68
2021/09/27 05:50:08;;;;;;;21.43;16.73;;;;;;;14.48;100.00;98241.44;4964017;28;20313;-68
2021/09/27 05:52:44;;;;;;;23.40;18.10;;;;;;;14.48;100.00;98237.97;4964069;28;20225;-67
2021/09/27 05:55:22;;;;;;;20.77;16.17;;;;;;;14.53;100.00;98234.72;4937569;28;20221;-67
2021/09/27 05:57:53;;;;;;;24.13;18.50;;;;;;;14.57;100.00;98238.69;4962149;28;20202;-67
2021/09/27 06:00:29;;;;;;;23.77;16.70;;;;;;;14.55;100.00;98240.72;4968920;28;20216;-68
2021/09/27 06:03:21;;;;;;;21.63;16.93;;;;;;;14.62;100.00;98236.31;4962503;28;20451;-68
2021/09/27 06:05:54;;;;;;;20.27;17.03;;;;;;;14.68;100.00;98232.91;4961810;28;20206;-67
2021/09/27 06:08:24;;;;;;;22.17;16.67;;;;;;;14.74;100.00;98237.53;4967196;28;20213;-69
2021/09/27 06:10:58;;;;;;;19.50;17.30;;;;;;;14.72;100.00;98236.88;4934715;28;20210;-67
2021/09/27 06:13:28;;;;;;;21.23;17.13;;;;;;;14.80;100.00;98241.31;4965520;28;20226;-68
2021/09/27 06:16:00;;;;;;;21.67;18.00;;;;;;;14.80;100.00;98243.97;4963648;28;20202;-69
2021/09/27 06:18:48;;;;;;;18.47;15.67;;;;;;;14.83;100.00;98245.44;4968253;28;20206;-68
2021/09/27 06:21:28;;;;;;;18.80;16.87;;;;;;;14.84;100.00;98239.94;4964873;28;20197;-69
2021/09/27 06:24:10;;;;;;;24.83;18.43;;;;;;;14.99;100.00;98244.41;4963178;28;20236;-69
2021/09/27 06:26:44;;;;;;;21.47;16.67;;;;;;;15.02;100.00;98244.88;4932976;28;20268;-67
2021/09/27 06:29:17;;;;;;;22.03;19.37;;;;;;;15.02;100.00;98239.53;4966028;28;20284;-68
2021/09/27 06:31:52;;;;;;;22.40;17.93;;;;;;;15.08;100.00;98239.81;4963768;28;20602;-67
2021/09/27 06:34:25;;;;;;;19.77;17.67;;;;;;;14.98;100.00;98235.59;4966085;28;20287;-68
2021/09/27 06:36:57;;;;;;;25.43;18.00;;;;;;;14.94;100.00;98234.28;4964375;28;20702;-67
2021/09/27 06:39:28;;;;;;;19.27;17.23;;;;;;;14.93;100.00;98229.97;4966679;28;20233;-69
2021/09/27 06:41:57;;;;;;;20.77;17.50;;;;;;;14.85;100.00;98230.06;4928141;28;20231;-69
2021/09/27 06:44:25;;;;;;;20.23;17.53;;;;;;;14.84;100.00;98223.91;4968316;28;20237;-69
2021/09/27 06:46:55;;;;;;;22.90;17.73;;;;;;;14.91;100.00;98229.31;4963696;28;20210;-67
2021/09/27 06:49:24;;;;;;;24.23;19.30;;;;;;;14.85;100.00;98230.91;4968985;28;20722;-68
2021/09/27 06:51:54;;;;;;;20.60;18.40;;;;;;;14.91;100.00;98226.66;4961425;28;20815;-67
2021/09/27 06:54:22;;;;;;;24.67;18.80;;;;;;;14.86;100.00;98231.72;4967025;28;20646;-68
2021/09/27 06:56:50;;;;;;;25.17;19.53;;;;;;;14.92;100.00;98235.50;4931629;28;20627;-67
2021/09/27 06:59:20;;;;;;;22.20;18.77;;;;;;;14.92;100.00;98230.16;4968194;28;20753;-66
2021/09/27 07:01:49;;;;;;;23.67;18.17;;;;;;;14.96;100.00;98248.25;4962467;28;20238;-67
2021/09/27 07:04:18;;;;;;;19.93;17.37;;;;;;;15.15;100.00;98251.38;4964595;28;20236;-69
2021/09/27 07:06:46;;;;;;;25.17;19.40;;;;;;;15.16;100.00;98251.19;4962689;28;20555;-67
2021/09/27 07:09:14;;;;;;;22.63;18.07;;;;;;;15.21;100.00;98250.63;4963259;28;20214;-68
2021/09/27 07:11:43;;;;;;;21.23;18.37;;;;;;;15.31;100.00;98247.66;4932182;28;20233;-67
2021/09/27 07:14:11;;;;;;;22.63;18.30;;;;;;;15.50;100.00;98240.88;4958043;28;20322;-68
2021/09/27 07:16:40;;;;;;;21.73;18.10;;;;;;;15.67;100.00;98238.78;4961395;28;20586;-67
2021/09/27 07:19:10;;;;;;;22.33;18.87;;;;;;;15.68;100.00;98239.59;4964487;28;20288;-67
2021/09/27 07:21:42;;;;;;;18.73;16.83;;;;;;;15.75;100.00;98238.66;4966596;28;20339;-66
2021/09/27 07:24:11;;;;;;;19.63;17.37;;;;;;;15.73;100.00;98237.22;4958277;28;20459;-67
2021/09/27 07:26:40;;;;;;;20.17;18.07;;;;;;;15.75;100.00;98240.50;4930002;28;20223;-67
2021/09/27 07:29:08;;;;;;;19.60;17.70;;;;;;;15.78;100.00;98238.25;4967050;28;20197;-68
2021/09/27 07:31:37;;;;;;;19.90;17.80;;;;;;;15.67;100.00;98230.78;4970845;28;20238;-68
2021/09/27 07:34:07;;;;;;;21.17;17.90;;;;;;;15.69;100.00;98242.09;4929662;28;20236;-66
2021/09/27 07:36:36;;;;;;;20.73;18.60;;;;;;;15.74;100.00;98241.53;4963041;28;20237;-68
2021/09/27 07:39:06;;;;;;;20.10;18.00;;;;;;;15.81;100.00;98239.75;4965886;28;20606;-67
2021/09/27 07:41:35;;;;;;;21.13;17.87;;;;;;;15.88;100.00;98240.66;4966728;28;20744;-68
2021/09/27 07:44:04;;;;;;;20.10;17.03;;;;;;;15.99;100.00;98241.97;4965099;28;20226;-66
2021/09/27 07:46:32;;;;;;;19.30;17.17;;;;;;;16.06;100.00;98242.00;4966669;28;20202;-66
2021/09/27 07:49:00;;;;;;;20.03;17.73;;;;;;;16.15;100.00;98245.38;4940566;28;20213;-66
2021/09/27 07:51:29;;;;;;;20.17;16.60;;;;;;;16.19;100.00;98236.78;4952662;28;20425;-67
2021/09/27 07:53:57;;;;;;;23.27;18.10;;;;;;;16.13;100.00;98226.88;4966342;28;20202;-66
2021/09/27 07:56:26;;;;;;;19.37;17.27;;;;;;;16.11;100.00;98228.94;4964533;28;20377;-68
2021/09/27 07:58:54;;;;;;;20.20;18.03;;;;;;;16.15;100.00;98232.03;4964577;28;20715;-66
2021/09/27 08:01:22;;;;;;;20.03;17.67;;;;;;;16.22;100.00;98221.38;4962654;28;20418;-69
2021/09/27 08:03:50;;;;;;;22.10;18.67;;;;;;;16.19;100.00;98218.06;4961938;28;20262;-67
2021/09/27 08:06:18;;;;;;;19.13;17.17;;;;;;;16.42;100.00;98224.19;4935898;28;20209;-68
2021/09/27 08:08:46;;;;;;;18.37;16.53;;;;;;;16.63;100.00;98221.41;4971638;28;20205;-68
2021/09/27 08:11:14;;;;;;;18.80;16.80;;;;;;;16.67;100.00;98215.66;4961809;28;20211;-67
2021/09/27 08:13:44;;;;;;;20.10;17.53;;;;;;;16.78;100.00;98220.47;4971400;28;20417;-67
2021/09/27 08:16:12;;;;;;;19.10;17.10;;;;;;;16.75;100.00;98221.69;4964802;28;20209;-69
2021/09/27 08:18:40;;;;;;;19.03;17.07;;;;;;;16.70;100.00;98215.31;4964842;28;20201;-68
2021/09/27 08:21:11;;;;;;;18.23;16.53;;;;;;;16.44;100.00;98224.81;4935880;28;20218;-68
2021/09/27 08:23:46;;;;;;;19.67;17.67;;;;;;;16.65;100.00;98229.25;4963609;28;20221;-68
2021/09/27 08:26:14;;;;;;;18.27;16.47;;;;;;;16.89;100.00;98211.88;4945834;28;20995;-69
2021/09/27 08:28:44;;;;;;;19.07;17.20;;;;;;;16.98;100.00;98204.53;4964122;28;20245;-67
2021/09/27 08:31:17;;;;;;;19.13;16.90;;;;;;;17.39;100.00;98201.97;4942056;28;20214;-67
2021/09/27 08:33:46;;;;;;;18.40;16.50;;;;;;;17.62;100.00;98206.94;4954282;28;20738;-67
2021/09/27 08:36:17;;;;;;;16.67;14.90;;;;;;;17.74;100.00;98210.66;4932935;28;20876;-67
2021/09/27 08:38:46;;;;;;;16.53;14.93;;;;;;;17.75;100.00;98201.59;4955513;28;20206;-69
2021/09/27 08:41:21;;;;;;;17.73;15.93;;;;;;;17.83;100.00;98202.44;4947849;28;20552;-69
2021/09/27 08:43:58;;;;;;;16.13;14.53;;;;;;;17.73;100.00;98211.69;4961429;28;20232;-67
2021/09/27 08:46:31;;;;;;;16.10;14.70;;;;;;;18.02;100.00;98200.81;4969803;28;20225;-67
2021/09/27 08:49:13;;;;;;;15.93;14.43;;;;;;;17.75;100.00;98206.13;4940245;28;20395;-68
2021/09/27 08:51:41;;;;;;;18.87;16.90;;;;;;;17.86;100.00;98208.19;4935788;28;20230;-67
2021/09/27 08:54:12;;;;;;;17.77;16.03;;;;;;;17.92;100.00;98198.53;4944696;28;23734;-67
2021/09/27 08:56:43;;;;;;;17.33;15.73;;;;;;;17.89;100.00;98201.63;4972780;28;20622;-66
2021/09/27 08:59:16;;;;;;;15.53;14.03;;;;;;;17.74;100.00;98199.94;4969008;28;20741;-68
2021/09/27 09:01:50;;;;;;;17.87;16.03;;;;;;;17.73;100.00;98197.47;4967319;28;20347;-66
2021/09/27 09:04:27;;;;;;;15.33;13.77;;;;;;;18.09;100.00;98196.28;4966780;28;20225;-68
2021/09/27 09:06:59;;;;;;;14.97;13.47;;;;;;;18.12;100.00;98184.28;4939119;28;20655;-66
2021/09/27 09:09:32;;;;;;;15.53;14.10;;;;;;;18.11;100.00;98196.88;4958039;28;20717;-68
2021/09/27 09:12:03;;;;;;;15.37;13.83;;;;;;;18.18;100.00;98192.34;4963868;28;20895;-67
2021/09/27 09:14:39;;;;;;;16.10;14.50;;;;;;;18.36;100.00;98199.72;4960459;28;20216;-67
2021/09/27 09:17:18;;;;;;;15.43;13.93;;;;;;;18.55;100.00;98204.44;4952890;28;20877;-68
2021/09/27 09:19:47;;;;;;;16.37;14.93;;;;;;;18.66;100.00;98188.50;4971193;28;20245;-67
2021/09/27 09:22:22;;;;;;;16.10;14.57;;;;;;;19.11;100.00;98191.44;4965704;28;20226;-66
2021/09/27 09:24:50;;;;;;;16.70;15.10;;;;;;;19.09;100.00;98183.63;4912581;28;20225;-66
2021/09/27 09:27:19;;;;;;;16.37;14.67;;;;;;;18.78;100.00;98188.69;4968484;28;20864;-66
2021/09/27 09:29:48;;;;;;;14.67;13.33;;;;;;;18.60;100.00;98202.78;4952046;28;20216;-67
2021/09/27 09:32:19;;;;;;;15.13;13.77;;;;;;;18.56;100.00;98198.03;4968928;28;20707;-68
2021/09/27 09:34:48;;;;;;;14.47;13.17;;;;;;;18.58;100.00;98199.50;4960727;28;20316;-67
2021/09/27 09:37:23;;;;;;;12.83;11.73;;;;;;;18.72;100.00;98192.19;4965569;28;20748;-67
2021/09/27 09:39:58;;;;;;;14.60;13.40;;;;;;;18.67;100.00;98192.00;4916372;28;21263;-67
2021/09/27 09:42:30;;;;;;;21.93;13.53;;;;;;;18.70;100.00;98190.78;4956226;28;20230;-67
2021/09/27 09:45:14;;;;;;;13.70;12.60;;;;;;;19.02;100.00;98189.00;4961664;28;20675;-67
2021/09/27 09:47:42;;;;;;;12.30;11.20;;;;;;;19.16;100.00;98186.28;4968879;28;20969;-67
2021/09/27 09:50:12;;;;;;;13.57;12.27;;;;;;;19.24;100.00;98191.38;4952200;28;20691;-66
2021/09/27 09:52:43;;;;;;;12.60;11.43;;;;;;;19.47;100.00;98184.63;4967245;28;20633;-68
2021/09/27 09:55:21;;;;;;;12.53;11.40;;;;;;;19.90;100.00;98189.31;4965485;28;20213;-66
2021/09/27 09:57:59;;;;;;;13.00;11.87;;;;;;;20.45;100.00;98189.59;4972696;28;20209;-67
2021/09/27 10:00:42;;;;;;;11.87;10.87;;;;;;;20.44;100.00;98185.25;4949387;28;20833;-67
2021/09/27 10:03:13;;;;;;;11.37;10.27;;;;;;;20.35;100.00;98188.25;4962205;28;20635;-66
2021/09/27 10:05:43;;;;;;;11.77;10.67;;;;;;;20.22;100.00;98191.91;4970147;28;20225;-66
2021/09/27 10:08:18;;;;;;;10.97;9.93;;;;;;;20.14;100.00;98184.13;4957443;28;20304;-66
2021/09/27 10:10:55;;;;;;;10.63;9.83;;;;;;;19.94;100.00;98182.44;4969363;28;20209;-68
2021/09/27 10:13:29;;;;;;;10.53;9.70;;;;;;;19.95;100.00;98180.56;4934766;28;21705;-68
2021/09/27 10:16:02;;;;;;;11.10;10.17;;;;;;;20.14;100.00;98181.44;4968893;28;20206;-66
2021/09/27 10:18:32;;;;;;;10.07;9.13;;;;;;;20.66;100.00;98172.22;4964269;28;20418;-66
2021/09/27 10:21:07;;;;;;;10.10;9.30;;;;;;;20.81;100.00;98166.44;4968473;28;20224;-66
2021/09/27 10:23:37;;;;;;;11.10;10.00;;;;;;;20.65;100.00;98165.97;4967029;28;20833;-68
2021/09/27 10:26:17;;;;;;;10.23;9.23;;;;;;;20.53;100.00;98176.69;4966436;28;20274;-67
2021/09/27 10:28:47;;;;;;;10.63;9.73;;;;;;;20.10;100.00;98178.38;4968884;28;20675;-67
2021/09/27 10:31:16;;;;;;;11.40;10.47;;;;;;;19.90;100.00;98175.88;4915903;28;20861;-66
2021/09/27 10:33:54;;;;;;;11.50;10.50;;;;;;;19.78;100.00;98180.25;4958859;28;20289;-68
2021/09/27 10:36:23;;;;;;;10.70;9.83;;;;;;;19.78;100.00;98180.25;4963820;28;20209;-67
2021/09/27 10:38:54;;;;;;;10.97;10.07;;;;;;;19.49;100.00;98169.94;4965198;28;20209;-67
2021/09/27 10:41:24;;;;;;;11.70;10.67;;;;;;;19.43;100.00;98170.81;4964135;28;20316;-67
2021/09/27 10:43:55;;;;;;;11.63;10.67;;;;;;;19.26;100.00;98169.66;4969242;28;20585;-67
2021/09/27 10:46:30;;;;;;;12.13;11.13;;;;;;;19.35;100.00;98171.06;4939458;28;20317;-67
2021/09/27 10:48:59;;;;;;;11.70;10.70;;;;;;;19.45;100.00;98182.16;4974395;28;20217;-66
2021/09/27 10:51:34;;;;;;;12.47;11.37;;;;;;;19.57;100.00;98184.16;4964087;28;20240;-69
2021/09/27 10:54:05;;;;;;;12.27;11.17;;;;;;;19.51;100.00;98169.72;4968027;28;20208;-66
2021/09/27 10:56:37;;;;;;;11.60;10.60;;;;;;;19.41;100.00;98169.38;4963761;28;20373;-66
2021/09/27 10:59:09;;;;;;;11.77;10.67;;;;;;;19.42;100.00;98169.16;4968737;28;20202;-66
2021/09/27 11:01:44;;;;;;;11.87;10.83;;;;;;;19.21;100.00;98170.34;4934562;28;20237;-67
2021/09/27 11:04:16;;;;;;;11.93;10.83;;;;;;;19.49;100.00;98164.56;4964867;28;20205;-66
2021/09/27 11:06:49;;;;;;;11.93;10.93;;;;;;;19.62;100.00;98179.78;4971047;28;20229;-66
2021/09/27 11:09:31;;;;;;;12.63;11.53;;;;;;;19.75;100.00;98172.63;4964794;28;20296;-65
2021/09/27 11:12:01;;;;;;;11.00;10.00;;;;;;;19.94;100.00;98177.06;4967416;28;20903;-66
2021/09/27 11:14:42;;;;;;;10.83;10.00;;;;;;;20.04;100.00;98167.66;4966092;28;20268;-67
2021/09/27 11:17:24;;;;;;;11.20;10.30;;;;;;;20.15;100.00;98163.44;4937780;28;20292;-66
2021/09/27 11:20:24;;;;;;;11.53;10.63;;;;;;;20.09;100.00;98165.13;4969054;28;20208;-67
2021/09/27 11:23:09;;;;;;;10.63;9.53;;;;;;;20.01;100.00;98157.34;4971007;28;20718;-68
2021/09/27 11:25:39;;;;;;;10.77;9.90;;;;;;;19.86;100.00;98157.66;4967189;28;20231;-67
2021/09/27 11:28:30;;;;;;;11.13;10.23;;;;;;;19.74;100.00;98157.53;4963377;28;20206;-65
2021/09/27 11:31:20;;;;;;;10.80;9.90;;;;;;;20.00;100.00;98155.72;4937295;28;20233;-67
2021/09/27 11:33:52;;;;;;;11.27;10.40;;;;;;;20.63;100.00;98148.41;4970349;28;20209;-66
2021/09/27 11:36:31;;;;;;;11.23;10.20;;;;;;;21.15;100.00;98147.97;4962231;28;20209;-67
2021/09/27 11:39:24;;;;;;;10.97;9.93;;;;;;;21.06;100.00;98147.47;4967580;28;20328;-66
2021/09/27 11:42:13;;;;;;;9.97;9.20;;;;;;;20.98;100.00;98155.84;4967578;28;20529;-68